Terminal Aerodrome Forecast
Issued by NWS

Home | Current Version | Previous Version | Graphics & Text | Print | Product List | Glossary On
Versions: 1 2 3 4 5 6 7 8 9 10 11 12 13 14 15 16 17
000
FTUS43 KTOP 261132
TAFMHK
TAF
KMHK 261132Z 2612/2712 05005KT P6SM BKN018
     FM261300 08005KT P6SM BKN022
     FM261500 16010G19KT P6SM BKN040
     FM262000 18011G19KT P6SM TSRA BKN025CB
     FM270100 15012KT P6SM VCTS SCT025 BKN040CB=

USA.gov is the U.S. government's official web portal to all federal, state and local government web resources and services.